createdAt,value
2024-02-22T00:00:38.670Z,675.00
2024-02-22T00:01:38.662Z,675.00
2024-02-22T00:02:38.622Z,675.00
2024-02-22T00:03:38.596Z,675.00
2024-02-22T00:04:38.671Z,675.00
2024-02-22T00:05:38.715Z,675.00
2024-02-22T00:06:38.620Z,675.00
2024-02-22T00:07:38.670Z,675.00
2024-02-22T00:08:38.602Z,675.00
2024-02-22T00:09:38.626Z,675.00
2024-02-22T00:10:38.671Z,675.00
2024-02-22T00:11:38.775Z,675.00
2024-02-22T00:12:38.630Z,675.00
2024-02-22T00:13:38.635Z,675.00
2024-02-22T00:14:38.613Z,675.00
2024-02-22T00:15:38.637Z,675.00
2024-02-22T00:16:38.675Z,675.00
2024-02-22T00:17:38.669Z,675.00
2024-02-22T00:18:38.662Z,675.00
2024-02-22T00:19:38.666Z,675.00
2024-02-22T00:20:38.609Z,675.00
2024-02-22T00:21:38.651Z,675.00
2024-02-22T00:22:38.688Z,675.00
2024-02-22T00:23:38.616Z,675.00
2024-02-22T00:24:38.616Z,675.00
2024-02-22T00:25:38.668Z,675.00
2024-02-22T00:26:38.614Z,675.00
2024-02-22T00:27:38.620Z,675.00
2024-02-22T00:28:38.663Z,675.00
2024-02-22T00:29:38.641Z,675.00
2024-02-22T00:30:38.645Z,675.00
2024-02-22T00:31:38.695Z,675.00
2024-02-22T00:32:38.671Z,675.00
2024-02-22T00:33:38.690Z,675.00
2024-02-22T00:34:38.801Z,675.00
2024-02-22T00:35:38.633Z,675.00
2024-02-22T00:36:38.623Z,675.00
2024-02-22T00:37:38.831Z,675.00
2024-02-22T00:38:38.670Z,675.00
2024-02-22T00:39:38.641Z,675.00
2024-02-22T00:40:38.666Z,675.00
2024-02-22T00:41:38.632Z,675.00
2024-02-22T00:42:38.647Z,675.00
2024-02-22T00:43:38.707Z,675.00
2024-02-22T00:44:38.637Z,675.00
2024-02-22T00:45:38.653Z,675.00
2024-02-22T00:46:38.696Z,675.00
2024-02-22T00:47:38.719Z,675.00
2024-02-22T00:48:38.796Z,675.00
2024-02-22T00:49:38.880Z,675.00
2024-02-22T00:50:38.937Z,675.00
2024-02-22T00:51:38.803Z,675.00
2024-02-22T00:52:38.822Z,675.00
2024-02-22T00:53:38.832Z,675.00
2024-02-22T00:54:38.873Z,675.00
2024-02-22T00:55:38.930Z,675.00
2024-02-22T00:56:38.930Z,675.00
2024-02-22T00:57:38.982Z,675.00
2024-02-22T00:58:39.076Z,675.00
2024-02-22T00:59:39.029Z,675.00
2024-02-22T01:00:39.187Z,675.00
2024-02-22T01:01:39.111Z,675.00
2024-02-22T01:02:39.160Z,675.00
2024-02-22T01:03:39.210Z,675.00
2024-02-22T01:04:39.316Z,675.00
2024-02-22T01:05:39.417Z,675.00
2024-02-22T01:06:39.257Z,675.00
2024-02-22T01:07:39.281Z,675.00
2024-02-22T01:08:39.252Z,675.00
2024-02-22T01:09:39.257Z,675.00
2024-02-22T01:10:39.352Z,675.00
2024-02-22T01:11:39.467Z,675.00
2024-02-22T01:12:39.328Z,675.00
2024-02-22T01:13:39.365Z,675.00
2024-02-22T01:14:39.336Z,675.00
2024-02-22T01:15:39.321Z,675.00
2024-02-22T01:16:39.352Z,675.00
2024-02-22T01:17:39.384Z,675.00
2024-02-22T01:18:39.404Z,675.00
2024-02-22T01:19:39.362Z,675.00
2024-02-22T01:20:39.378Z,675.00
2024-02-22T01:21:39.398Z,675.00
2024-02-22T01:22:39.389Z,675.00
2024-02-22T01:23:39.393Z,675.00
2024-02-22T01:24:39.406Z,675.00
2024-02-22T01:25:39.440Z,675.00
2024-02-22T01:26:39.417Z,675.00
2024-02-22T01:27:39.444Z,675.00
2024-02-22T01:28:39.477Z,675.00
2024-02-22T01:29:39.475Z,675.00
2024-02-22T01:30:39.455Z,675.00
2024-02-22T01:31:39.489Z,675.00
2024-02-22T01:32:42.171Z,675.00
2024-02-22T01:33:39.539Z,675.00
2024-02-22T01:34:39.546Z,675.00
2024-02-22T01:35:39.481Z,675.00
2024-02-22T01:36:39.486Z,675.00
2024-02-22T01:37:39.522Z,675.00
2024-02-22T01:38:39.475Z,675.00
2024-02-22T01:39:39.476Z,675.00
2024-02-22T01:40:39.502Z,675.00
2024-02-22T01:41:39.497Z,675.00
2024-02-22T01:42:39.497Z,675.00
2024-02-22T01:43:39.504Z,675.00
2024-02-22T01:44:39.488Z,675.00
2024-02-22T01:45:39.493Z,675.00
2024-02-22T01:46:39.515Z,675.00
2024-02-22T01:47:39.602Z,675.00
2024-02-22T01:48:39.590Z,675.00
2024-02-22T01:49:39.512Z,675.00
2024-02-22T01:50:39.509Z,675.00
2024-02-22T01:51:39.503Z,675.00
2024-02-22T01:52:39.533Z,675.00
2024-02-22T01:53:39.491Z,675.00
2024-02-22T01:54:39.512Z,675.00
2024-02-22T01:55:39.530Z,675.00
2024-02-22T01:56:39.489Z,675.00
2024-02-22T01:57:39.476Z,675.00
2024-02-22T01:58:39.504Z,675.00
2024-02-22T01:59:39.489Z,675.00
2024-02-22T02:00:39.508Z,675.00
2024-02-22T02:01:39.534Z,675.00
2024-02-22T02:02:39.489Z,675.00
2024-02-22T02:03:39.561Z,675.00
2024-02-22T02:04:39.514Z,675.00
2024-02-22T02:05:39.484Z,675.00
2024-02-22T02:06:39.513Z,675.00
2024-02-22T02:07:39.512Z,675.00
2024-02-22T02:08:39.488Z,675.00
2024-02-22T02:09:39.492Z,675.00
2024-02-22T02:10:39.523Z,675.00
2024-02-22T02:11:39.632Z,675.00
2024-02-22T02:12:39.503Z,675.00
2024-02-22T02:13:39.575Z,675.00
2024-02-22T02:14:39.489Z,675.00
2024-02-22T02:15:39.487Z,675.00
2024-02-22T02:16:39.572Z,675.00
2024-02-22T02:17:40.086Z,675.00
2024-02-22T02:18:39.571Z,675.00
2024-02-22T02:19:39.546Z,675.00
2024-02-22T02:20:39.495Z,675.00
2024-02-22T02:21:39.498Z,675.00
2024-02-22T02:22:39.607Z,675.00
2024-02-22T02:23:39.499Z,675.00
2024-02-22T02:24:39.496Z,675.00
2024-02-22T02:25:39.563Z,675.00
2024-02-22T02:26:39.645Z,675.00
2024-02-22T02:27:39.497Z,675.00
2024-02-22T02:28:39.560Z,675.00
2024-02-22T02:29:39.526Z,675.00
2024-02-22T02:30:39.512Z,675.00
2024-02-22T02:31:39.542Z,675.00
2024-02-22T02:32:39.604Z,675.00
2024-02-22T02:33:39.609Z,675.00
2024-02-22T02:34:39.553Z,675.00
2024-02-22T02:35:39.530Z,675.00
2024-02-22T02:36:39.520Z,675.00
2024-02-22T02:37:39.543Z,675.00
2024-02-22T02:38:39.532Z,675.00
2024-02-22T02:39:39.521Z,675.00
2024-02-22T02:40:39.585Z,675.00
2024-02-22T02:41:39.529Z,675.00
2024-02-22T02:42:39.518Z,675.00
2024-02-22T02:43:39.557Z,675.00
2024-02-22T02:44:39.509Z,675.00
2024-02-22T02:45:39.521Z,675.00
2024-02-22T02:46:39.556Z,675.00
2024-02-22T02:47:39.551Z,675.00
2024-02-22T02:48:39.546Z,675.00
2024-02-22T02:49:39.575Z,675.00
2024-02-22T02:50:39.513Z,675.00
2024-02-22T02:51:39.533Z,675.00
2024-02-22T02:52:39.543Z,675.00
2024-02-22T02:53:39.510Z,675.00
2024-02-22T02:54:39.512Z,675.00
2024-02-22T02:55:39.545Z,675.00
2024-02-22T02:56:39.529Z,675.00
2024-02-22T02:57:39.517Z,675.00
2024-02-22T02:58:39.555Z,675.00
2024-02-22T02:59:39.516Z,675.00
2024-02-22T03:00:39.513Z,675.00
2024-02-22T03:01:39.611Z,675.00
2024-02-22T03:02:39.520Z,675.00
2024-02-22T03:03:39.529Z,675.00
2024-02-22T03:04:39.635Z,675.00
2024-02-22T03:05:39.684Z,675.00
2024-02-22T03:06:39.586Z,675.00
2024-02-22T03:07:39.587Z,675.00
2024-02-22T03:08:39.530Z,675.00
2024-02-22T03:09:39.533Z,675.00
2024-02-22T03:10:39.586Z,675.00
2024-02-22T03:11:39.609Z,675.00
2024-02-22T03:12:39.545Z,675.00
2024-02-22T03:13:39.542Z,675.00
2024-02-22T03:14:39.587Z,675.00
2024-02-22T03:15:39.530Z,675.00
2024-02-22T03:16:39.658Z,675.00
2024-02-22T03:17:39.587Z,675.00
2024-02-22T03:18:39.607Z,675.00
2024-02-22T03:19:39.551Z,675.00
2024-02-22T03:20:39.550Z,675.00
2024-02-22T03:21:39.565Z,675.00
2024-02-22T03:22:39.582Z,675.00
2024-02-22T03:23:39.528Z,675.00
2024-02-22T03:24:39.540Z,675.00
2024-02-22T03:25:39.537Z,675.00
2024-02-22T03:26:39.550Z,675.00
2024-02-22T03:27:39.529Z,675.00
2024-02-22T03:28:41.005Z,675.00
2024-02-22T03:29:39.537Z,675.00
2024-02-22T03:30:39.541Z,675.00
2024-02-22T03:31:39.587Z,675.00
2024-02-22T03:32:39.593Z,675.00
2024-02-22T03:33:39.589Z,675.00
2024-02-22T03:34:39.590Z,675.00
2024-02-22T03:35:39.545Z,675.00
2024-02-22T03:36:39.553Z,675.00
2024-02-22T03:37:39.614Z,675.00
2024-02-22T03:38:39.546Z,675.00
2024-02-22T03:39:39.543Z,675.00
2024-02-22T03:40:39.610Z,675.00
2024-02-22T03:41:39.598Z,675.00
2024-02-22T03:42:39.574Z,675.00
2024-02-22T03:43:39.573Z,675.00
2024-02-22T03:44:39.543Z,675.00
2024-02-22T03:45:39.552Z,675.00
2024-02-22T03:46:39.590Z,675.00
2024-02-22T03:47:39.774Z,675.00
2024-02-22T03:48:39.626Z,675.00
2024-02-22T03:49:39.581Z,675.00
2024-02-22T03:50:39.553Z,675.00
2024-02-22T03:51:39.556Z,675.00
2024-02-22T03:52:39.664Z,675.00
2024-02-22T03:53:39.554Z,675.00
2024-02-22T03:54:39.566Z,675.00
2024-02-22T03:55:39.641Z,675.00
2024-02-22T03:56:39.556Z,675.00
2024-02-22T03:57:39.568Z,675.00
2024-02-22T03:58:39.612Z,675.00
2024-02-22T03:59:39.559Z,675.00
2024-02-22T04:00:39.591Z,675.00
2024-02-22T04:01:39.627Z,675.00
2024-02-22T04:02:39.562Z,675.00
2024-02-22T04:03:39.679Z,675.00
2024-02-22T04:04:39.693Z,675.00
2024-02-22T04:05:39.733Z,675.00
2024-02-22T04:06:40.282Z,675.00
2024-02-22T04:07:39.606Z,675.00
2024-02-22T04:08:39.584Z,675.00
2024-02-22T04:09:39.618Z,675.00
2024-02-22T04:10:39.646Z,675.00
2024-02-22T04:11:39.631Z,675.00
2024-02-22T04:12:39.583Z,675.00
2024-02-22T04:13:39.623Z,675.00
2024-02-22T04:14:39.602Z,675.00
2024-02-22T04:15:39.612Z,675.00
2024-02-22T04:16:39.585Z,675.00
2024-02-22T04:17:39.661Z,675.00
2024-02-22T04:18:39.654Z,675.00
2024-02-22T04:19:39.606Z,675.00
2024-02-22T04:20:39.578Z,675.00
2024-02-22T04:21:39.612Z,675.00
2024-02-22T04:22:39.651Z,675.00
2024-02-22T04:23:39.602Z,675.00
2024-02-22T04:24:39.572Z,675.00
2024-02-22T04:25:39.613Z,675.00
2024-02-22T04:26:39.606Z,675.00
2024-02-22T04:27:39.618Z,675.00
2024-02-22T04:28:39.624Z,675.00
2024-02-22T04:29:46.833Z,600.00
2024-02-22T04:30:46.828Z,600.00
2024-02-22T04:31:54.118Z,600.00
2024-02-22T04:32:54.135Z,600.00
2024-02-22T04:33:54.145Z,600.00
2024-02-22T04:34:54.167Z,600.00
2024-02-22T04:35:54.132Z,600.00
2024-02-22T04:36:54.069Z,624.00
2024-02-22T04:37:54.124Z,643.00
2024-02-22T04:38:54.182Z,668.00
2024-02-22T04:39:54.085Z,709.00
2024-02-22T04:40:54.150Z,745.00
2024-02-22T04:41:54.089Z,789.00
2024-02-22T04:42:54.077Z,807.00
2024-02-22T04:43:54.077Z,842.00
2024-02-22T04:44:54.076Z,864.00
2024-02-22T04:45:54.076Z,881.00
2024-02-22T04:46:54.103Z,895.00
2024-02-22T04:47:54.127Z,909.00
2024-02-22T04:48:54.169Z,925.00
2024-02-22T04:49:54.083Z,928.00
2024-02-22T04:50:54.106Z,951.00
2024-02-22T04:51:54.106Z,940.00
2024-02-22T04:52:54.138Z,947.00
2024-02-22T04:53:54.086Z,955.00
2024-02-22T04:54:54.098Z,967.00
2024-02-22T04:55:54.094Z,977.00
2024-02-22T04:56:54.084Z,971.00
2024-02-22T04:57:54.102Z,978.00
2024-02-22T04:58:54.113Z,992.00
2024-02-22T04:59:54.108Z,988.00
2024-02-22T05:00:54.162Z,1004.00
2024-02-22T05:01:54.155Z,1000.00
2024-02-22T05:02:54.082Z,1010.00
2024-02-22T05:03:54.247Z,1011.00
2024-02-22T05:04:54.241Z,1007.00
2024-02-22T05:05:54.261Z,1021.00
2024-02-22T05:06:54.273Z,1022.00
2024-02-22T05:07:54.393Z,1027.00
2024-02-22T05:08:54.466Z,1036.00
2024-02-22T05:09:54.486Z,1031.00
2024-02-22T05:10:54.631Z,1042.00
2024-02-22T05:11:54.655Z,1034.00
2024-02-22T05:12:54.648Z,1040.00
2024-02-22T05:13:54.800Z,1045.00
2024-02-22T05:14:54.737Z,1051.00
2024-02-22T05:15:54.790Z,1049.00
2024-02-22T05:16:54.927Z,1052.00
2024-02-22T05:17:56.023Z,1058.00
2024-02-22T05:18:55.086Z,1062.00
2024-02-22T05:19:55.062Z,1064.00
2024-02-22T05:20:55.092Z,1064.00
2024-02-22T05:21:55.165Z,1075.00
2024-02-22T05:22:55.281Z,1064.00
2024-02-22T05:23:55.265Z,1072.00
2024-02-22T05:24:55.306Z,1069.00
2024-02-22T05:25:55.428Z,1066.00
2024-02-22T05:26:55.457Z,1065.00
2024-02-22T05:27:55.484Z,1071.00
2024-02-22T05:28:55.612Z,1070.00
2024-02-22T05:29:55.600Z,1071.00
2024-02-22T05:30:55.650Z,1071.00
2024-02-22T05:31:55.812Z,1076.00
2024-02-22T05:32:55.833Z,1070.00
2024-02-22T05:33:56.011Z,1062.00
2024-02-22T05:34:55.920Z,1067.00
2024-02-22T05:35:55.968Z,1063.00
2024-02-22T05:36:56.053Z,1074.00
2024-02-22T05:37:56.148Z,1076.00
2024-02-22T05:38:56.159Z,1077.00
2024-02-22T05:39:56.193Z,1077.00
2024-02-22T05:40:56.304Z,1068.00
2024-02-22T05:41:56.323Z,1089.00
2024-02-22T05:42:56.374Z,1079.00
2024-02-22T05:43:56.520Z,1080.00
2024-02-22T05:44:56.509Z,1085.00
2024-02-22T05:45:56.562Z,1087.00
2024-02-22T05:46:56.689Z,1088.00
2024-02-22T05:47:56.748Z,1093.00
2024-02-22T05:48:56.814Z,1093.00
2024-02-22T05:49:56.866Z,1093.00
2024-02-22T05:50:57.720Z,1094.00
2024-02-22T05:51:56.932Z,1095.00
2024-02-22T05:52:56.994Z,1087.00
2024-02-22T05:53:57.054Z,1099.00
2024-02-22T05:54:57.093Z,1093.00
2024-02-22T05:55:57.231Z,1091.00
2024-02-22T05:56:57.214Z,1099.00
2024-02-22T05:57:57.280Z,1097.00
2024-02-22T05:58:57.341Z,1095.00
2024-02-22T05:59:57.426Z,1105.00
2024-02-22T06:00:57.475Z,1108.00
2024-02-22T06:01:57.583Z,1099.00
2024-02-22T06:02:57.715Z,1112.00
2024-02-22T06:03:57.686Z,1099.00
2024-02-22T06:04:57.906Z,1106.00
2024-02-22T06:05:57.818Z,1102.00
2024-02-22T06:06:57.815Z,1104.00
2024-02-22T06:07:57.884Z,1108.00
2024-02-22T06:08:57.947Z,1106.00
2024-02-22T06:09:57.997Z,1101.00
2024-02-22T06:10:58.126Z,1101.00
2024-02-22T06:11:58.204Z,1097.00
2024-02-22T06:12:58.180Z,1111.00
2024-02-22T06:13:58.275Z,1100.00
2024-02-22T06:14:58.274Z,1111.00
2024-02-22T06:15:58.347Z,1103.00
2024-02-22T06:16:58.801Z,1104.00
2024-02-22T06:17:58.558Z,1100.00
2024-02-22T06:18:58.533Z,1107.00
2024-02-22T06:19:58.686Z,1104.00
2024-02-22T06:20:58.651Z,1099.00
2024-02-22T06:21:58.728Z,1108.00
2024-02-22T06:22:58.782Z,1118.00
2024-02-22T06:23:58.820Z,1105.00
2024-02-22T06:24:58.959Z,1097.00
2024-02-22T06:25:59.024Z,1097.00
2024-02-22T06:26:59.068Z,1096.00
2024-02-22T06:27:59.235Z,1111.00
2024-02-22T06:28:59.164Z,1100.00
2024-02-22T06:29:59.222Z,1098.00
2024-02-22T06:30:59.271Z,1104.00
2024-02-22T06:31:59.399Z,1092.00
2024-02-22T06:32:59.440Z,1104.00
2024-02-22T06:33:59.582Z,1094.00
2024-02-22T06:35:00.275Z,1094.00
2024-02-22T06:35:59.551Z,1099.00
2024-02-22T06:36:59.612Z,1099.00
2024-02-22T06:37:59.903Z,1103.00
2024-02-22T06:38:59.768Z,1106.00
2024-02-22T06:39:59.811Z,1112.00
2024-02-22T06:40:59.984Z,1108.00
2024-02-22T06:41:59.943Z,1117.00
2024-02-22T06:43:00.041Z,1126.00
2024-02-22T06:44:00.156Z,1136.00
2024-02-22T06:45:01.094Z,1137.00
2024-02-22T06:46:00.078Z,1143.00
2024-02-22T06:47:00.167Z,1154.00
2024-02-22T06:48:00.308Z,1180.00
2024-02-22T06:49:00.120Z,1220.00
2024-02-22T06:50:00.217Z,1244.00
2024-02-22T06:51:00.213Z,1269.00
2024-02-22T06:52:00.107Z,1297.00
2024-02-22T06:53:00.154Z,1322.00
2024-02-22T06:54:00.152Z,1348.00
2024-02-22T06:55:00.142Z,1378.00
2024-02-22T06:56:00.260Z,1396.00
2024-02-22T06:57:00.124Z,1415.00
2024-02-22T06:58:00.119Z,1437.00
2024-02-22T06:59:00.184Z,1460.00
2024-02-22T07:00:00.247Z,1495.00
2024-02-22T07:01:00.150Z,1523.00
2024-02-22T07:02:00.145Z,1530.00
2024-02-22T07:03:02.830Z,1571.00
2024-02-22T07:04:00.238Z,1571.00
2024-02-22T07:05:00.170Z,1577.00
2024-02-22T07:06:00.119Z,1591.00
2024-02-22T07:07:00.160Z,1624.00
2024-02-22T07:08:00.275Z,1677.00
2024-02-22T07:09:00.166Z,1689.00
2024-02-22T07:10:00.191Z,1710.00
2024-02-22T07:11:00.217Z,1730.00
2024-02-22T07:12:00.192Z,1749.00
2024-02-22T07:13:00.192Z,1767.00
2024-02-22T07:14:00.268Z,1777.00
2024-02-22T07:15:00.141Z,1782.00
2024-02-22T07:16:00.170Z,1782.00
2024-02-22T07:17:00.257Z,1788.00
2024-02-22T07:18:00.299Z,1783.00
2024-02-22T07:19:00.220Z,1785.00
2024-02-22T07:20:00.271Z,1799.00
2024-02-22T07:21:00.128Z,1783.00
2024-02-22T07:22:00.171Z,1794.00
2024-02-22T07:23:00.185Z,1812.00
2024-02-22T07:24:00.212Z,1816.00
2024-02-22T07:25:00.202Z,1816.00
2024-02-22T07:26:00.194Z,1823.00
2024-02-22T07:27:00.313Z,1844.00
2024-02-22T07:28:00.317Z,1856.00
2024-02-22T07:29:02.329Z,1862.00
2024-02-22T07:30:00.508Z,1872.00
2024-02-22T07:31:00.507Z,1896.00
2024-02-22T07:32:00.619Z,1898.00
2024-02-22T07:33:00.715Z,1927.00
2024-02-22T07:34:00.873Z,1914.00
2024-02-22T07:35:00.782Z,1926.00
2024-02-22T07:36:00.808Z,1930.00
2024-02-22T07:37:00.870Z,1931.00
2024-02-22T07:38:00.989Z,1924.00
2024-02-22T07:39:00.994Z,1913.00
2024-02-22T07:40:01.098Z,1910.00
2024-02-22T07:41:01.136Z,1906.00
2024-02-22T07:42:01.765Z,1914.00
2024-02-22T07:43:01.240Z,1908.00
2024-02-22T07:44:01.388Z,2004.00
2024-02-22T07:45:01.331Z,1978.00
2024-02-22T07:46:01.530Z,1969.00
2024-02-22T07:47:01.890Z,1967.00
2024-02-22T07:48:01.691Z,1961.00
2024-02-22T07:49:01.658Z,1959.00
2024-02-22T07:50:01.838Z,1958.00
2024-02-22T07:51:01.748Z,1962.00
2024-02-22T07:52:01.751Z,1944.00
2024-02-22T07:53:01.856Z,1945.00
2024-02-22T07:54:01.885Z,1928.00
2024-02-22T07:55:01.913Z,1945.00
2024-02-22T07:56:02.029Z,1922.00
2024-02-22T07:57:02.050Z,1927.00
2024-02-22T07:58:02.134Z,1926.00
2024-02-22T07:59:02.212Z,1925.00
2024-02-22T08:00:02.325Z,1918.00
2024-02-22T08:01:02.362Z,1923.00
2024-02-22T08:02:02.448Z,1921.00
2024-02-22T08:03:02.472Z,1915.00
2024-02-22T08:04:02.597Z,1918.00
2024-02-22T08:05:02.788Z,1921.00
2024-02-22T08:06:02.570Z,1919.00
2024-02-22T08:07:02.691Z,1908.00
2024-02-22T08:08:02.747Z,1912.00
2024-02-22T08:09:02.752Z,1909.00
2024-02-22T08:10:02.843Z,1904.00
2024-02-22T08:11:02.908Z,1900.00
2024-02-22T08:12:03.004Z,1901.00
2024-02-22T08:13:02.966Z,1901.00
2024-02-22T08:14:03.079Z,1894.00
2024-02-22T08:15:03.072Z,1892.00
2024-02-22T08:16:03.139Z,1887.00
2024-02-22T08:17:03.229Z,1883.00
2024-02-22T08:18:03.280Z,1881.00
2024-02-22T08:19:03.324Z,1870.00
2024-02-22T08:20:03.449Z,1869.00
2024-02-22T08:21:03.520Z,1850.00
2024-02-22T08:22:03.766Z,1844.00
2024-02-22T08:23:03.861Z,1845.00
2024-02-22T08:24:03.628Z,1838.00
2024-02-22T08:25:03.689Z,1841.00
2024-02-22T08:26:03.847Z,1850.00
2024-02-22T08:27:03.751Z,1842.00
2024-02-22T08:28:07.489Z,1829.00
2024-02-22T08:29:03.928Z,1830.00
2024-02-22T08:30:03.799Z,1832.00
2024-02-22T08:31:03.824Z,1836.00
2024-02-22T08:32:04.344Z,1841.00
2024-02-22T08:33:03.983Z,1852.00
2024-02-22T08:34:04.414Z,1864.00
2024-02-22T08:35:03.917Z,1857.00
2024-02-22T08:36:03.830Z,1855.00
2024-02-22T08:37:03.824Z,1853.00
2024-02-22T08:38:03.908Z,1843.00
2024-02-22T08:39:04.291Z,1837.00
2024-02-22T08:40:15.515Z,1832.00
2024-02-22T08:41:04.897Z,1833.00
2024-02-22T08:42:03.820Z,1836.00
2024-02-22T08:43:03.878Z,1839.00
2024-02-22T08:44:03.888Z,1845.00
2024-02-22T08:45:03.841Z,1847.00
2024-02-22T08:46:03.804Z,1844.00
2024-02-22T08:47:04.378Z,1867.00
2024-02-22T08:48:04.270Z,1853.00
2024-02-22T08:49:04.312Z,1859.00
2024-02-22T08:50:03.942Z,1868.00
2024-02-22T08:51:03.863Z,1867.00
2024-02-22T08:52:03.888Z,1868.00
2024-02-22T08:53:04.164Z,1861.00
2024-02-22T08:54:04.289Z,1862.00
2024-02-22T08:55:04.070Z,1860.00
2024-02-22T08:56:04.175Z,1855.00
2024-02-22T08:57:04.841Z,1867.00
2024-02-22T08:58:04.289Z,1853.00
2024-02-22T08:59:04.820Z,1872.00
2024-02-22T09:00:04.369Z,1856.00
2024-02-22T09:01:04.464Z,1869.00
2024-02-22T09:02:04.537Z,1853.00
2024-02-22T09:03:04.550Z,1857.00
2024-02-22T09:04:04.709Z,1861.00
2024-02-22T09:05:04.776Z,1865.00
2024-02-22T09:06:04.771Z,1843.00
2024-02-22T09:07:04.838Z,1857.00
2024-02-22T09:08:04.956Z,1853.00
2024-02-22T09:09:04.888Z,1848.00
2024-02-22T09:10:04.946Z,1848.00
2024-02-22T09:11:05.128Z,1835.00
2024-02-22T09:12:05.142Z,1842.00
2024-02-22T09:13:05.120Z,1822.00
2024-02-22T09:14:05.187Z,1823.00
2024-02-22T09:15:05.245Z,1816.00
2024-02-22T09:16:05.278Z,1803.00
2024-02-22T09:17:05.418Z,1807.00
2024-02-22T09:18:05.578Z,1803.00
2024-02-22T09:19:05.470Z,1800.00
2024-02-22T09:20:05.576Z,1786.00
2024-02-22T09:21:05.547Z,1788.00
2024-02-22T09:22:05.595Z,1777.00
2024-02-22T09:23:05.664Z,1763.00
2024-02-22T09:24:05.651Z,1736.00
2024-02-22T09:25:05.706Z,1726.00
2024-02-22T09:26:05.796Z,1719.00
2024-02-22T09:27:05.746Z,1683.00
2024-02-22T09:28:05.764Z,1658.00
2024-02-22T09:29:06.364Z,1652.00
2024-02-22T09:30:05.920Z,1623.00
2024-02-22T09:31:05.852Z,1614.00
2024-02-22T09:32:06.329Z,1573.00
2024-02-22T09:33:06.736Z,1566.00
2024-02-22T09:34:06.162Z,1556.00
2024-02-22T09:35:06.105Z,1502.00
2024-02-22T09:36:06.203Z,1502.00
2024-02-22T09:37:06.123Z,1474.00
2024-02-22T09:38:06.502Z,1463.00
2024-02-22T09:39:06.153Z,1477.00
2024-02-22T09:40:06.250Z,1469.00
2024-02-22T09:41:06.287Z,1446.00
2024-02-22T09:42:06.314Z,1446.00
2024-02-22T09:43:06.369Z,1422.00
2024-02-22T09:44:06.528Z,1407.00
2024-02-22T09:45:06.497Z,1389.00
2024-02-22T09:46:06.518Z,1378.00
2024-02-22T09:47:06.843Z,1365.00
2024-02-22T09:48:06.616Z,1370.00
2024-02-22T09:49:08.403Z,1376.00
2024-02-22T09:50:06.629Z,1383.00
2024-02-22T09:51:06.579Z,1383.00
2024-02-22T09:52:06.701Z,1383.00
2024-02-22T09:53:06.677Z,1397.00
2024-02-22T09:54:06.712Z,1400.00
2024-02-22T09:55:06.729Z,1414.00
2024-02-22T09:56:06.880Z,1448.00
2024-02-22T09:57:06.861Z,1457.00
2024-02-22T09:58:06.837Z,1471.00
2024-02-22T09:59:06.915Z,1458.00
2024-02-22T10:00:06.901Z,1475.00
2024-02-22T10:01:07.008Z,1483.00
2024-02-22T10:02:07.029Z,1497.00
2024-02-22T10:03:07.093Z,1500.00
2024-02-22T10:04:07.104Z,1507.00
2024-02-22T10:05:07.424Z,1509.00
2024-02-22T10:06:07.287Z,1523.00
2024-02-22T10:07:07.344Z,1530.00
2024-02-22T10:08:07.356Z,1553.00
2024-02-22T10:09:07.303Z,1551.00
2024-02-22T10:10:07.311Z,1566.00
2024-02-22T10:11:07.482Z,1577.00
2024-02-22T10:12:07.724Z,1593.00
2024-02-22T10:13:08.462Z,1606.00
2024-02-22T10:14:07.451Z,1628.00
2024-02-22T10:15:09.150Z,1633.00
2024-02-22T10:16:07.377Z,1648.00
2024-02-22T10:17:07.426Z,1653.00
2024-02-22T10:18:07.486Z,1677.00
2024-02-22T10:19:07.496Z,1676.00
2024-02-22T10:20:07.490Z,1677.00
2024-02-22T10:21:07.524Z,1689.00
2024-02-22T10:22:07.531Z,1699.00
2024-02-22T10:23:07.603Z,1703.00
2024-02-22T10:24:07.545Z,1719.00
2024-02-22T10:25:07.576Z,1708.00
2024-02-22T10:26:07.613Z,1718.00
2024-02-22T10:27:09.194Z,1754.00
2024-02-22T10:28:07.643Z,1761.00
2024-02-22T10:29:07.731Z,1751.00
2024-02-22T10:30:07.693Z,1764.00
2024-02-22T10:31:07.700Z,1774.00
2024-02-22T10:32:07.891Z,1765.00
2024-02-22T10:33:07.857Z,1760.00
2024-02-22T10:34:07.904Z,1760.00
2024-02-22T10:35:07.846Z,1779.00
2024-02-22T10:36:07.829Z,1774.00
2024-02-22T10:37:08.337Z,1759.00
2024-02-22T10:38:07.918Z,1769.00
2024-02-22T10:39:07.921Z,1757.00
2024-02-22T10:40:07.951Z,1757.00
2024-02-22T10:41:08.139Z,1748.00
2024-02-22T10:42:08.334Z,1724.00
2024-02-22T10:43:08.102Z,1698.00
2024-02-22T10:44:08.257Z,1701.00
2024-02-22T10:45:08.225Z,1704.00
2024-02-22T10:46:08.318Z,1695.00
2024-02-22T10:47:08.360Z,1681.00
2024-02-22T10:48:08.513Z,1685.00
2024-02-22T10:49:08.611Z,1681.00
2024-02-22T10:50:08.739Z,1682.00
2024-02-22T10:51:08.557Z,1679.00
2024-02-22T10:52:08.631Z,1677.00
2024-02-22T10:53:08.667Z,1676.00
2024-02-22T10:54:08.700Z,1666.00
2024-02-22T10:55:08.792Z,1662.00
2024-02-22T10:56:08.915Z,1656.00
2024-02-22T10:57:08.889Z,1655.00
2024-02-22T10:58:08.952Z,1653.00
2024-02-22T10:59:09.072Z,1642.00
2024-02-22T11:00:09.102Z,1646.00
2024-02-22T11:01:09.146Z,1635.00
2024-02-22T11:02:09.257Z,1634.00
2024-02-22T11:03:09.208Z,1621.00
2024-02-22T11:04:09.288Z,1629.00
2024-02-22T11:05:09.361Z,1622.00
2024-02-22T11:06:09.501Z,1596.00
2024-02-22T11:07:09.550Z,1602.00
2024-02-22T11:08:09.522Z,1591.00
2024-02-22T11:09:09.569Z,1580.00
2024-02-22T11:10:09.618Z,1587.00
2024-02-22T11:11:09.886Z,1560.00
2024-02-22T11:12:09.741Z,1558.00
2024-02-22T11:13:09.808Z,1564.00
2024-02-22T11:14:09.941Z,1544.00
2024-02-22T11:15:09.929Z,1555.00
2024-02-22T11:16:09.970Z,1534.00
2024-02-22T11:17:10.072Z,1540.00
2024-02-22T11:18:10.195Z,1522.00
2024-02-22T11:19:10.384Z,1527.00
2024-02-22T11:20:10.270Z,1513.00
2024-02-22T11:21:10.275Z,1503.00
2024-02-22T11:22:10.351Z,1507.00
2024-02-22T11:23:10.518Z,1485.00
2024-02-22T11:24:10.536Z,1472.00
2024-02-22T11:25:10.524Z,1483.00
2024-02-22T11:26:10.661Z,1463.00
2024-02-22T11:27:10.668Z,1468.00
2024-02-22T11:28:10.973Z,1452.00
2024-02-22T11:29:10.885Z,1444.00
2024-02-22T11:30:10.813Z,1419.00
2024-02-22T11:31:10.876Z,1415.00
2024-02-22T11:32:10.956Z,1379.00
2024-02-22T11:33:11.450Z,1214.00
2024-02-22T11:34:11.080Z,1114.00
2024-02-22T11:35:11.169Z,971.00
2024-02-22T11:36:11.151Z,820.00
2024-02-22T11:37:11.177Z,745.00
2024-02-22T11:38:11.292Z,702.00
2024-02-22T11:39:11.331Z,639.00
2024-02-22T11:40:11.405Z,631.00
2024-02-22T11:41:11.457Z,630.00
2024-02-22T11:42:11.470Z,631.00
2024-02-22T11:43:11.878Z,620.00
2024-02-22T11:44:11.576Z,601.00
2024-02-22T11:45:11.592Z,601.00
2024-02-22T11:46:11.636Z,583.00
2024-02-22T11:47:11.740Z,600.00
2024-02-22T11:48:12.024Z,603.00
2024-02-22T11:49:11.876Z,620.00
2024-02-22T11:50:11.852Z,639.00
2024-02-22T11:51:14.139Z,598.00
2024-02-22T11:52:12.362Z,600.00
2024-02-22T11:53:11.904Z,593.00
2024-02-22T11:54:11.871Z,598.00
2024-02-22T11:55:11.867Z,610.00
2024-02-22T11:56:11.910Z,609.00
2024-02-22T11:57:14.929Z,602.00
2024-02-22T11:58:11.868Z,587.00
2024-02-22T11:59:11.950Z,594.00
2024-02-22T12:00:11.908Z,574.00
2024-02-22T12:01:11.899Z,579.00
2024-02-22T12:02:11.942Z,608.00
2024-02-22T12:03:14.987Z,711.00
2024-02-22T12:04:11.908Z,712.00
2024-02-22T12:05:12.073Z,719.00
2024-02-22T12:06:12.052Z,735.00
2024-02-22T12:07:11.915Z,774.00
2024-02-22T12:08:11.891Z,779.00
2024-02-22T12:09:14.867Z,781.00
2024-02-22T12:10:11.885Z,782.00
2024-02-22T12:11:11.961Z,790.00
2024-02-22T12:12:12.018Z,807.00
2024-02-22T12:13:11.900Z,837.00
2024-02-22T12:14:11.948Z,847.00
2024-02-22T12:15:15.486Z,854.00
2024-02-22T12:16:12.204Z,855.00
2024-02-22T12:17:12.281Z,864.00